createdAt,value
2019-01-03T00:03:06.995Z,91.20
2019-01-03T00:05:58.203Z,91.20
2019-01-03T00:08:45.923Z,91.10
2019-01-03T00:11:38.707Z,91.60
2019-01-03T00:14:26.415Z,91.30
2019-01-03T00:17:15.819Z,91.60
2019-01-03T00:20:03.676Z,91.60
2019-01-03T00:22:58.633Z,91.00
2019-01-03T00:25:47.910Z,91.80
2019-01-03T00:28:49.449Z,91.50
2019-01-03T00:31:33.945Z,92.00
2019-01-03T00:34:33.893Z,92.60
2019-01-03T00:37:28.806Z,91.40
2019-01-03T00:40:17.962Z,91.60
2019-01-03T00:43:03.544Z,91.80
2019-01-03T00:45:56.018Z,91.80
2019-01-03T00:48:48.321Z,91.80
2019-01-03T00:51:33.155Z,91.80
2019-01-03T00:54:21.725Z,91.90
2019-01-03T00:57:10.855Z,92.20
2019-01-03T01:00:03.015Z,92.10
2019-01-03T01:02:58.401Z,93.00
2019-01-03T01:05:50.285Z,92.40
2019-01-03T01:08:45.631Z,92.30
2019-01-03T01:11:34.755Z,92.50
2019-01-03T01:14:23.269Z,92.60
2019-01-03T01:17:10.951Z,92.30
2019-01-03T01:19:58.965Z,92.30
2019-01-03T01:22:48.055Z,93.10
2019-01-03T01:25:32.051Z,92.70
2019-01-03T01:28:39.561Z,93.00
2019-01-03T01:31:29.021Z,92.50
2019-01-03T01:34:24.378Z,92.70
2019-01-03T01:37:22.463Z,92.60
2019-01-03T01:40:11.603Z,93.00
2019-01-03T01:42:59.673Z,93.00
2019-01-03T01:45:48.850Z,93.20
2019-01-03T01:48:37.025Z,93.00
2019-01-03T01:51:24.795Z,93.00
2019-01-03T01:54:18.467Z,93.40
2019-01-03T01:57:16.913Z,93.20
2019-01-03T02:00:21.253Z,93.50
2019-01-03T02:03:09.365Z,93.90
2019-01-03T02:06:13.945Z,94.30
2019-01-03T02:09:08.792Z,94.50
2019-01-03T02:12:00.692Z,94.30
2019-01-03T02:14:48.539Z,94.60
2019-01-03T02:17:36.294Z,94.80
2019-01-03T02:20:28.783Z,94.90
2019-01-03T02:23:17.919Z,95.00
2019-01-03T02:26:19.550Z,95.10
2019-01-03T02:29:26.877Z,95.30
2019-01-03T02:32:27.525Z,95.30
2019-01-03T02:35:19.458Z,95.60
2019-01-03T02:38:08.625Z,95.70
2019-01-03T02:41:16.323Z,95.90
2019-01-03T02:44:23.017Z,95.90
2019-01-03T02:47:12.185Z,96.30
2019-01-03T02:50:00.197Z,96.40
2019-01-03T02:52:48.158Z,96.60
2019-01-03T02:55:43.401Z,96.60
2019-01-03T02:58:44.940Z,96.80
2019-01-03T03:01:26.659Z,96.90
2019-01-03T03:04:31.355Z,96.90
2019-01-03T03:07:23.454Z,97.20
2019-01-03T03:10:24.720Z,97.00
2019-01-03T03:13:13.856Z,97.20
2019-01-03T03:16:12.303Z,97.00
2019-01-03T03:18:58.543Z,97.30
2019-01-03T03:22:07.162Z,97.30
2019-01-03T03:24:54.970Z,97.50
2019-01-03T03:27:44.147Z,97.40
2019-01-03T03:30:42.579Z,97.50
2019-01-03T03:33:47.075Z,97.50
2019-01-03T03:36:35.227Z,97.60
2019-01-03T03:39:32.904Z,97.60
2019-01-03T03:42:20.756Z,97.80
2019-01-03T03:44:59.208Z,97.70
2019-01-03T03:47:46.973Z,97.90
2019-01-03T03:50:39.341Z,97.90
2019-01-03T03:53:37.753Z,97.80
2019-01-03T03:56:27.002Z,97.90
2019-01-03T03:59:22.217Z,98.00
2019-01-03T04:02:10.836Z,97.90
2019-01-03T04:05:06.301Z,97.90
2019-01-03T04:07:54.715Z,98.00
2019-01-03T04:10:42.771Z,98.10
2019-01-03T04:13:43.967Z,98.00
2019-01-03T04:16:33.070Z,98.10
2019-01-03T04:19:16.001Z,98.00
2019-01-03T04:22:03.779Z,98.10
2019-01-03T04:24:51.790Z,97.90
2019-01-03T04:27:39.872Z,98.10
2019-01-03T04:30:35.036Z,97.90
2019-01-03T04:33:22.711Z,98.20
2019-01-03T04:36:10.566Z,98.20
2019-01-03T04:38:58.649Z,98.10
2019-01-03T04:41:46.513Z,98.30
2019-01-03T04:44:37.174Z,98.20
2019-01-03T04:47:32.148Z,98.10
2019-01-03T04:50:27.334Z,98.10
2019-01-03T04:53:25.602Z,98.00
2019-01-03T04:56:20.606Z,98.10
2019-01-03T04:59:06.753Z,98.10
2019-01-03T05:02:18.829Z,98.20
2019-01-03T05:05:06.606Z,98.30
2019-01-03T05:07:54.682Z,98.30
2019-01-03T05:10:49.996Z,98.50
2019-01-03T05:13:57.599Z,98.50
2019-01-03T05:16:55.785Z,98.30
2019-01-03T05:19:47.703Z,98.40
2019-01-03T05:22:50.108Z,98.40
2019-01-03T05:25:45.027Z,98.40
2019-01-03T05:28:33.307Z,98.50
2019-01-03T05:31:31.494Z,98.50
2019-01-03T05:34:19.199Z,98.10
2019-01-03T05:37:07.042Z,98.40
2019-01-03T05:39:50.583Z,98.20
2019-01-03T05:42:38.458Z,98.40
2019-01-03T05:45:27.631Z,98.20
2019-01-03T05:48:16.734Z,98.10
2019-01-03T05:51:18.023Z,98.10
2019-01-03T05:54:10.761Z,97.90
2019-01-03T05:56:59.572Z,97.80
2019-01-03T05:59:42.270Z,97.90
2019-01-03T06:02:43.657Z,97.90
2019-01-03T06:05:35.620Z,97.80
2019-01-03T06:08:24.920Z,97.80
2019-01-03T06:11:12.668Z,97.90
2019-01-03T06:14:09.934Z,97.90
2019-01-03T06:16:59.253Z,97.80
2019-01-03T06:19:47.773Z,97.80
2019-01-03T06:22:38.050Z,97.80
2019-01-03T06:25:25.826Z,97.70
2019-01-03T06:28:13.963Z,97.80
2019-01-03T06:31:12.021Z,97.80
2019-01-03T06:34:07.581Z,97.80
2019-01-03T06:36:55.364Z,97.90
2019-01-03T06:39:50.551Z,97.60
2019-01-03T06:42:51.758Z,97.70
2019-01-03T06:45:52.976Z,97.70
2019-01-03T06:48:47.924Z,97.30
2019-01-03T06:51:43.278Z,97.40
2019-01-03T06:54:31.022Z,97.50
2019-01-03T06:57:26.040Z,97.40
2019-01-03T07:00:21.253Z,97.20
2019-01-03T07:03:22.747Z,97.30
2019-01-03T07:06:10.657Z,97.50
2019-01-03T07:09:02.549Z,97.30
2019-01-03T07:11:55.615Z,97.30
2019-01-03T07:14:43.589Z,97.40
2019-01-03T07:17:51.165Z,97.30
2019-01-03T07:20:55.833Z,97.20
2019-01-03T07:23:51.681Z,97.00
2019-01-03T07:26:40.902Z,97.20
2019-01-03T07:29:42.476Z,97.20
2019-01-03T07:32:40.641Z,97.30
2019-01-03T07:35:29.868Z,97.10
2019-01-03T07:38:24.972Z,96.90
2019-01-03T07:41:13.225Z,96.90
2019-01-03T07:44:02.231Z,96.90
2019-01-03T07:46:52.706Z,96.70
2019-01-03T07:49:41.928Z,96.80
2019-01-03T07:52:30.045Z,96.90
2019-01-03T07:55:19.244Z,96.60
2019-01-03T07:58:04.915Z,96.60
2019-01-03T08:00:53.444Z,96.40
2019-01-03T08:03:54.857Z,96.30
2019-01-03T08:06:44.031Z,96.20
2019-01-03T08:09:32.096Z,96.10
2019-01-03T08:12:19.916Z,96.30
2019-01-03T08:15:14.949Z,96.10
2019-01-03T08:18:12.995Z,96.00
2019-01-03T08:21:14.234Z,96.10
2019-01-03T08:24:21.778Z,96.00
2019-01-03T08:27:13.919Z,96.00
2019-01-03T08:30:02.349Z,95.90
2019-01-03T08:32:54.147Z,96.10
2019-01-03T08:35:42.045Z,95.80
2019-01-03T08:38:21.745Z,96.00
2019-01-03T08:41:16.735Z,96.40
2019-01-03T08:44:06.243Z,95.80
2019-01-03T08:46:54.040Z,96.00
2019-01-03T08:49:43.200Z,95.80
2019-01-03T08:52:31.857Z,95.60
2019-01-03T08:55:24.087Z,95.80
2019-01-03T08:58:19.504Z,95.50
2019-01-03T09:01:14.704Z,96.20
2019-01-03T09:04:06.730Z,95.50
2019-01-03T09:06:55.956Z,95.40
2019-01-03T09:09:43.660Z,96.40
2019-01-03T09:12:31.590Z,95.80
2019-01-03T09:15:19.447Z,95.50
2019-01-03T09:18:14.697Z,96.00
2019-01-03T09:21:09.766Z,95.80
2019-01-03T09:24:15.259Z,95.20
2019-01-03T09:27:04.408Z,95.10
2019-01-03T09:29:52.187Z,94.90
2019-01-03T09:32:44.278Z,95.10
2019-01-03T09:35:37.671Z,94.60
2019-01-03T09:38:42.066Z,94.50
2019-01-03T09:41:31.208Z,95.00
2019-01-03T09:44:32.692Z,95.20
2019-01-03T09:47:03.009Z,95.90
2019-01-03T09:49:33.228Z,96.00
2019-01-03T09:52:09.759Z,95.20
2019-01-03T09:54:39.956Z,95.50
2019-01-03T09:57:10.294Z,95.60
2019-01-03T09:59:40.492Z,95.40
2019-01-03T10:02:10.991Z,95.50
2019-01-03T10:04:41.166Z,94.80
2019-01-03T10:07:11.357Z,94.90
2019-01-03T10:09:42.898Z,95.00
2019-01-03T10:12:13.170Z,94.40
2019-01-03T10:14:43.364Z,94.50
2019-01-03T10:17:14.665Z,94.60
2019-01-03T10:19:44.828Z,95.90
2019-01-03T10:22:15.071Z,95.10
2019-01-03T10:24:45.225Z,97.50
2019-01-03T10:27:15.418Z,95.70
2019-01-03T10:29:45.584Z,94.80
2019-01-03T10:32:15.786Z,94.30
2019-01-03T10:34:45.949Z,94.20
2019-01-03T10:37:16.177Z,94.10
2019-01-03T10:39:46.328Z,94.50
2019-01-03T10:42:17.482Z,94.20
2019-01-03T10:44:47.713Z,94.10
2019-01-03T10:47:17.978Z,94.40
2019-01-03T10:49:48.136Z,95.50
2019-01-03T10:52:18.389Z,94.90
2019-01-03T10:54:48.579Z,95.40
2019-01-03T10:57:18.794Z,95.00
2019-01-03T10:59:48.999Z,95.30
2019-01-03T11:02:19.135Z,95.00
2019-01-03T11:04:49.258Z,94.90
2019-01-03T11:07:19.409Z,95.70
2019-01-03T11:09:49.753Z,95.40
2019-01-03T11:12:19.941Z,95.70
2019-01-03T11:14:50.218Z,95.90
2019-01-03T11:17:20.337Z,96.20
2019-01-03T11:19:50.627Z,95.50
2019-01-03T11:22:20.871Z,95.20
2019-01-03T11:24:51.520Z,94.80
2019-01-03T11:27:21.669Z,94.80
2019-01-03T11:29:53.065Z,94.60
2019-01-03T11:32:23.290Z,94.80
2019-01-03T11:34:53.586Z,95.20
2019-01-03T11:37:23.760Z,95.80
2019-01-03T11:39:53.971Z,95.60
2019-01-03T11:42:24.124Z,96.20
2019-01-03T11:44:54.358Z,96.20
2019-01-03T11:47:24.497Z,95.80
2019-01-03T11:49:54.726Z,96.10
2019-01-03T11:52:24.924Z,96.40
2019-01-03T11:54:55.173Z,96.40
2019-01-03T11:57:25.334Z,96.60
2019-01-03T11:59:55.486Z,96.70
2019-01-03T12:02:25.878Z,96.60
2019-01-03T12:04:56.097Z,96.80
2019-01-03T12:07:26.247Z,96.70
2019-01-03T12:09:56.466Z,97.00
2019-01-03T12:12:26.573Z,96.90
2019-01-03T12:14:56.831Z,97.00
2019-01-03T12:17:26.956Z,96.50
2019-01-03T12:19:57.284Z,96.60
2019-01-03T12:22:27.473Z,96.60
2019-01-03T12:24:57.735Z,96.60
2019-01-03T12:27:27.945Z,96.50
2019-01-03T12:29:58.126Z,96.30
2019-01-03T12:32:28.355Z,96.40
2019-01-03T12:34:58.631Z,96.40
2019-01-03T12:37:28.966Z,96.40
2019-01-03T12:39:59.175Z,96.40
2019-01-03T12:42:29.369Z,96.70
2019-01-03T12:44:59.807Z,96.80
2019-01-03T12:47:30.024Z,96.40
2019-01-03T12:50:00.301Z,96.30
2019-01-03T12:52:30.549Z,96.40
2019-01-03T12:55:00.788Z,95.90
2019-01-03T12:57:30.987Z,96.20
2019-01-03T13:00:01.281Z,96.00
2019-01-03T13:02:31.482Z,96.20
2019-01-03T13:05:01.686Z,95.80
2019-01-03T13:07:31.917Z,95.90
2019-01-03T13:10:02.207Z,95.70
2019-01-03T13:12:33.049Z,95.60
2019-01-03T13:15:03.551Z,95.70
2019-01-03T13:17:33.740Z,95.50
2019-01-03T13:20:04.063Z,95.70
2019-01-03T13:22:34.228Z,95.10
2019-01-03T13:25:04.447Z,95.60
2019-01-03T13:27:34.694Z,95.60
2019-01-03T13:30:05.656Z,96.20
2019-01-03T13:32:35.827Z,96.00
2019-01-03T13:35:06.087Z,96.00
2019-01-03T13:37:36.394Z,96.30
2019-01-03T13:40:07.668Z,96.20
2019-01-03T13:42:37.841Z,96.40
2019-01-03T13:45:08.045Z,96.20
2019-01-03T13:47:38.217Z,96.20
2019-01-03T13:50:08.938Z,96.20
2019-01-03T13:52:39.151Z,96.30
2019-01-03T13:55:09.283Z,96.40
2019-01-03T13:57:39.559Z,96.30
2019-01-03T14:00:10.978Z,96.20
2019-01-03T14:02:41.166Z,95.60
2019-01-03T14:05:11.415Z,95.60
2019-01-03T14:07:41.566Z,95.40
2019-01-03T14:10:11.887Z,95.20
2019-01-03T14:12:42.039Z,95.40
2019-01-03T14:15:12.282Z,95.80
2019-01-03T14:17:42.455Z,95.30
2019-01-03T14:20:14.141Z,95.00
2019-01-03T14:22:44.889Z,95.60
2019-01-03T14:25:15.449Z,95.10
2019-01-03T14:27:45.687Z,95.10
2019-01-03T14:30:15.928Z,95.00
2019-01-03T14:32:46.081Z,95.40
2019-01-03T14:35:16.239Z,95.50
2019-01-03T14:37:46.427Z,95.50
2019-01-03T14:40:16.623Z,95.50
2019-01-03T14:42:46.803Z,95.40
2019-01-03T14:45:16.962Z,95.60
2019-01-03T14:47:47.269Z,95.80
2019-01-03T14:50:17.465Z,95.80
2019-01-03T14:52:49.574Z,96.00
2019-01-03T14:55:19.695Z,96.60
2019-01-03T14:57:50.055Z,96.20
2019-01-03T15:00:20.263Z,96.40
2019-01-03T15:02:50.535Z,96.70
2019-01-03T15:05:20.772Z,96.80
2019-01-03T15:07:50.957Z,97.00
2019-01-03T15:10:21.234Z,97.40
2019-01-03T15:12:51.382Z,97.40
2019-01-03T15:15:21.628Z,97.50
2019-01-03T15:17:51.778Z,97.70
2019-01-03T15:20:22.006Z,97.90
2019-01-03T15:22:53.420Z,97.90
2019-01-03T15:25:23.634Z,97.70
2019-01-03T15:27:53.835Z,97.70
2019-01-03T15:30:24.055Z,97.70
2019-01-03T15:32:54.179Z,97.60
2019-01-03T15:35:24.383Z,97.60
2019-01-03T15:37:54.675Z,97.60
2019-01-03T15:40:25.017Z,97.70
2019-01-03T15:42:55.174Z,97.70
2019-01-03T15:45:28.619Z,98.10
2019-01-03T15:47:58.741Z,97.60
2019-01-03T15:50:28.991Z,97.70
2019-01-03T15:53:00.129Z,97.60
2019-01-03T15:55:30.403Z,97.60
2019-01-03T15:58:00.653Z,97.60
2019-01-03T16:00:30.954Z,97.70
2019-01-03T16:03:01.159Z,97.60
2019-01-03T16:05:31.410Z,97.50
2019-01-03T16:08:01.587Z,97.40
2019-01-03T16:10:31.905Z,97.30
2019-01-03T16:13:02.250Z,97.50
2019-01-03T16:15:32.858Z,97.50
2019-01-03T16:18:03.469Z,97.80
2019-01-03T16:20:33.941Z,97.50
2019-01-03T16:23:04.429Z,97.50
2019-01-03T16:25:34.997Z,97.70
2019-01-03T16:28:05.446Z,97.70
2019-01-03T16:30:35.889Z,97.90
2019-01-03T16:33:06.332Z,98.00
2019-01-03T16:35:38.491Z,98.00
2019-01-03T16:38:10.281Z,98.00
2019-01-03T16:40:41.011Z,98.00
2019-01-03T16:43:11.701Z,98.20
2019-01-03T16:45:42.308Z,98.00
2019-01-03T16:48:13.053Z,98.00
2019-01-03T16:50:43.473Z,98.10
2019-01-03T16:53:15.257Z,98.00
2019-01-03T16:55:46.047Z,98.20
2019-01-03T16:58:16.831Z,98.00
2019-01-03T17:00:47.325Z,98.20
2019-01-03T17:03:17.830Z,98.20
2019-01-03T17:05:48.075Z,98.10
2019-01-03T17:08:18.448Z,98.20
2019-01-03T17:10:48.992Z,98.20
2019-01-03T17:13:19.180Z,98.00
2019-01-03T17:15:49.432Z,98.20
2019-01-03T17:18:19.770Z,98.30
2019-01-03T17:20:49.962Z,98.30
2019-01-03T17:23:21.122Z,98.30
2019-01-03T17:25:51.398Z,98.40
2019-01-03T17:28:21.723Z,98.50
2019-01-03T17:30:52.032Z,98.30
2019-01-03T17:33:24.877Z,98.10
2019-01-03T17:35:55.458Z,98.00
2019-01-03T17:38:26.461Z,98.30
2019-01-03T17:40:57.252Z,98.50
2019-01-03T17:43:28.501Z,98.00
2019-01-03T17:45:58.851Z,98.10
2019-01-03T17:48:29.353Z,98.10
2019-01-03T17:50:59.718Z,98.20
2019-01-03T17:53:30.049Z,98.00
2019-01-03T17:56:00.571Z,98.20
2019-01-03T17:58:32.411Z,98.20
2019-01-03T18:01:05.614Z,98.20
2019-01-03T18:03:36.365Z,98.30
2019-01-03T18:06:06.936Z,98.30
2019-01-03T18:08:37.844Z,98.20
2019-01-03T18:11:08.514Z,98.40
2019-01-03T18:13:38.955Z,98.30
2019-01-03T18:16:09.221Z,98.70
2019-01-03T18:18:39.637Z,98.50
2019-01-03T18:21:10.181Z,98.70
2019-01-03T18:23:40.388Z,98.70
2019-01-03T18:26:10.651Z,98.60
2019-01-03T18:28:40.911Z,98.50
2019-01-03T18:31:11.366Z,98.50
2019-01-03T18:33:41.587Z,98.30
2019-01-03T18:36:12.001Z,98.40
2019-01-03T18:38:42.478Z,98.20
2019-01-03T18:41:13.772Z,98.40
2019-01-03T18:43:44.345Z,98.70
2019-01-03T18:46:15.138Z,98.20
2019-01-03T18:48:45.668Z,98.30
2019-01-03T18:51:16.130Z,98.30
2019-01-03T18:53:46.367Z,98.30
2019-01-03T18:56:16.698Z,98.30
2019-01-03T18:58:47.048Z,98.50
2019-01-03T19:01:17.408Z,98.50
2019-01-03T19:03:47.843Z,98.60
2019-01-03T19:06:18.328Z,98.60
2019-01-03T19:08:48.922Z,98.50
2019-01-03T19:11:19.309Z,98.40
2019-01-03T19:13:49.500Z,98.90
2019-01-03T19:16:19.844Z,99.00
2019-01-03T19:18:50.038Z,99.10
2019-01-03T19:21:20.365Z,98.90
2019-01-03T19:23:55.349Z,98.90
2019-01-03T19:26:22.547Z,98.80
2019-01-03T19:28:52.819Z,98.80
2019-01-03T19:31:24.494Z,98.80
2019-01-03T19:33:55.162Z,98.70
2019-01-03T19:36:25.763Z,98.60
2019-01-03T19:38:57.322Z,98.70
2019-01-03T19:41:27.760Z,98.70
2019-01-03T19:43:58.398Z,98.60
2019-01-03T19:46:28.893Z,98.60
2019-01-03T19:48:59.184Z,98.60
2019-01-03T19:51:29.941Z,98.60
2019-01-03T19:54:00.507Z,98.60
2019-01-03T19:56:31.084Z,98.80
2019-01-03T19:59:01.415Z,99.10
2019-01-03T20:01:31.906Z,99.30
2019-01-03T20:04:02.654Z,99.20
2019-01-03T20:06:33.483Z,99.20
2019-01-03T20:09:05.496Z,99.20
2019-01-03T20:11:36.398Z,99.30
2019-01-03T20:14:06.701Z,99.50
2019-01-03T20:16:38.929Z,99.50
2019-01-03T20:19:09.554Z,99.60
2019-01-03T20:21:39.891Z,99.60
2019-01-03T20:24:10.320Z,99.90
2019-01-03T20:26:40.775Z,99.90
2019-01-03T20:29:11.315Z,99.90
2019-01-03T20:31:41.810Z,99.90
2019-01-03T20:34:13.222Z,99.90
2019-01-03T20:36:45.433Z,99.90
2019-01-03T20:39:15.820Z,99.90
2019-01-03T20:41:46.227Z,99.80
2019-01-03T20:44:16.604Z,99.80
2019-01-03T20:46:47.057Z,99.80
2019-01-03T20:49:17.978Z,99.90
2019-01-03T20:51:48.460Z,99.90
2019-01-03T20:54:18.897Z,99.90
2019-01-03T20:56:49.311Z,99.70
2019-01-03T20:59:19.657Z,99.70
2019-01-03T21:01:50.066Z,99.80
2019-01-03T21:04:20.345Z,99.90
2019-01-03T21:06:50.663Z,99.90
2019-01-03T21:09:21.580Z,99.90
2019-01-03T21:11:51.974Z,99.90
2019-01-03T21:14:22.298Z,99.90
2019-01-03T21:16:52.642Z,99.90
2019-01-03T21:19:22.937Z,99.90
2019-01-03T21:21:53.220Z,99.90
2019-01-03T21:24:23.556Z,99.90
2019-01-03T21:26:53.836Z,99.90
2019-01-03T21:29:24.002Z,99.90
2019-01-03T21:31:54.525Z,99.90
2019-01-03T21:34:24.818Z,99.90
2019-01-03T21:36:55.151Z,99.90
2019-01-03T21:39:34.232Z,99.90
2019-01-03T21:42:04.555Z,99.90
2019-01-03T21:44:34.785Z,99.90
2019-01-03T21:47:05.142Z,99.90
2019-01-03T21:49:35.836Z,99.90
2019-01-03T21:52:06.259Z,99.90
2019-01-03T21:54:36.682Z,99.90
2019-01-03T21:57:06.886Z,99.90
2019-01-03T21:59:37.064Z,99.90
2019-01-03T22:02:07.331Z,99.90
2019-01-03T22:04:37.504Z,99.90
2019-01-03T22:07:08.018Z,99.90
2019-01-03T22:09:38.391Z,99.90
2019-01-03T22:12:08.636Z,99.90
2019-01-03T22:14:39.164Z,99.90
2019-01-03T22:17:09.457Z,99.90
2019-01-03T22:19:39.607Z,99.90
2019-01-03T22:22:09.958Z,99.90
2019-01-03T22:24:40.176Z,99.90
2019-01-03T22:27:10.437Z,99.90
2019-01-03T22:29:40.689Z,99.90
2019-01-03T22:32:10.974Z,99.90
2019-01-03T22:34:41.209Z,99.90
2019-01-03T22:37:11.515Z,99.90
2019-01-03T22:39:41.751Z,99.90
2019-01-03T22:42:11.992Z,99.90
2019-01-03T22:44:42.187Z,99.90
2019-01-03T22:47:12.361Z,99.90
2019-01-03T22:49:43.715Z,99.90
2019-01-03T22:52:13.839Z,99.90
2019-01-03T22:54:44.011Z,99.90
2019-01-03T22:57:14.244Z,99.90
2019-01-03T22:59:44.438Z,99.90
2019-01-03T23:02:15.377Z,99.90
2019-01-03T23:04:49.091Z,99.90
2019-01-03T23:07:17.456Z,99.90
2019-01-03T23:09:47.967Z,99.90
2019-01-03T23:12:18.307Z,99.90
2019-01-03T23:14:49.597Z,99.90
2019-01-03T23:17:19.863Z,99.90
2019-01-03T23:19:50.044Z,99.90
2019-01-03T23:22:20.248Z,99.90
2019-01-03T23:24:50.519Z,99.90
2019-01-03T23:27:20.906Z,99.90
2019-01-03T23:29:51.178Z,99.90
2019-01-03T23:32:21.422Z,99.90
2019-01-03T23:34:51.588Z,99.90
2019-01-03T23:37:21.894Z,99.90
2019-01-03T23:39:52.053Z,99.90
2019-01-03T23:42:22.278Z,99.90
2019-01-03T23:45:27.685Z,99.90
2019-01-03T23:47:59.413Z,99.90
2019-01-03T23:50:31.805Z,99.90
2019-01-03T23:53:02.050Z,99.90
2019-01-03T23:55:33.858Z,99.90
2019-01-03T23:58:04.128Z,99.90
